Time;durP1;ratioP1;P1;durP2;ratioP2;P2;SDS_P1;SDS_P2;PMS_P1;PMS_P2;Temp;Humidity;BMP_temperature;BMP_pressure;BME280_temperature;BME280_humidity;BME280_pressure;Samples;Min_cycle;Max_cycle;Signal;HPM_P1;HPM_P2
2023/09/14 00:00:30;;;;;;;;;;;;;;;13.14;91.66;102208.16;5034592;28;19952;-58
2023/09/14 00:02:55;;;;;;;;;;;;;;;13.10;91.85;102214.09;5042540;28;20093;-58
2023/09/14 00:05:20;;;;;;;;;;;;;;;13.07;91.82;102212.25;5033174;28;19905;-58
2023/09/14 00:07:45;;;;;;;;;;;;;;;13.09;92.03;102212.31;5036350;28;20139;-57
2023/09/14 00:10:11;;;;;;;;;;;;;;;13.06;91.93;102205.22;5034691;28;19909;-58
2023/09/14 00:12:36;;;;;;;;;;;;;;;13.03;92.02;102202.53;5032946;28;20050;-57
2023/09/14 00:15:01;;;;;;;;;;;;;;;13.00;92.20;102208.53;5031932;28;19912;-58
2023/09/14 00:17:27;;;;;;;;;;;;;;;13.01;92.19;102210.31;5015992;28;19913;-57
2023/09/14 00:19:52;;;;;;;;;;;;;;;13.00;92.19;102208.53;5036830;28;19944;-57
2023/09/14 00:22:17;;;;;;;;;;;;;;;12.99;92.12;102214.63;5029791;28;19905;-58
2023/09/14 00:24:42;;;;;;;;;;;;;;;12.96;92.07;102214.50;5036882;28;19937;-58
2023/09/14 00:27:07;;;;;;;;;;;;;;;12.94;92.20;102213.53;5026640;28;19933;-58
2023/09/14 00:29:32;;;;;;;;;;;;;;;12.90;92.33;102206.41;5026884;28;19901;-58
2023/09/14 00:31:58;;;;;;;;;;;;;;;12.92;92.35;102211.69;5025841;28;20128;-58
2023/09/14 00:34:23;;;;;;;;;;;;;;;12.89;92.24;102215.13;5033060;28;19965;-58
2023/09/14 00:36:48;;;;;;;;;;;;;;;12.86;92.25;102210.66;5026609;28;20143;-58
2023/09/14 00:39:13;;;;;;;;;;;;;;;12.86;92.38;102212.38;5008922;28;19902;-58
2023/09/14 00:41:38;;;;;;;;;;;;;;;12.85;92.26;102203.66;5026428;28;19905;-58
2023/09/14 00:44:04;;;;;;;;;;;;;;;12.83;92.32;102204.41;5026638;28;19908;-58
2023/09/14 00:46:29;;;;;;;;;;;;;;;12.80;92.21;102204.31;5026357;28;20131;-58
2023/09/14 00:48:55;;;;;;;;;;;;;;;12.75;92.28;102205.88;5029012;28;19909;-58
2023/09/14 00:51:20;;;;;;;;;;;;;;;12.73;92.47;102207.53;5036649;28;20060;-58
2023/09/14 00:53:47;;;;;;;;;;;;;;;12.71;92.58;102202.25;5029792;28;19901;-58
2023/09/14 00:56:12;;;;;;;;;;;;;;;12.70;92.36;102206.59;5029668;28;19921;-57
2023/09/14 00:58:38;;;;;;;;;;;;;;;12.70;92.47;102209.22;5032843;28;20150;-58
2023/09/14 01:01:04;;;;;;;;;;;;;;;12.64;92.24;102203.78;5033085;28;19924;-58
2023/09/14 01:03:30;;;;;;;;;;;;;;;12.60;92.21;102206.19;5035608;28;19912;-58
2023/09/14 01:05:55;;;;;;;;;;;;;;;12.54;92.30;102212.06;5030915;28;19974;-57
2023/09/14 01:08:20;;;;;;;;;;;;;;;12.48;92.09;102207.53;5030731;28;20197;-57
2023/09/14 01:10:46;;;;;;;;;;;;;;;12.47;92.62;102210.97;5034379;28;20135;-57
2023/09/14 01:13:22;;;;;;;;;;;;;;;12.45;92.44;102206.50;5024740;28;20136;-58
2023/09/14 01:15:51;;;;;;;;;;;;;;;12.44;92.61;102208.25;5031423;28;19921;-57
2023/09/14 01:18:35;;;;;;;;;;;;;;;12.44;92.58;102216.09;5033371;28;19905;-58
2023/09/14 01:21:20;;;;;;;;;;;;;;;12.38;92.55;102213.22;5035187;28;20063;-58
2023/09/14 01:23:51;;;;;;;;;;;;;;;12.35;92.64;102211.41;5033084;28;19906;-58
2023/09/14 01:26:17;;;;;;;;;;;;;;;12.32;92.73;102213.00;5041309;28;19973;-58
2023/09/14 01:28:42;;;;;;;;;;;;;;;12.30;92.76;102206.81;5037994;28;20152;-58
2023/09/14 01:31:08;;;;;;;;;;;;;;;12.27;92.85;102215.44;5035396;28;19905;-57
2023/09/14 01:33:33;;;;;;;;;;;;;;;12.26;92.78;102210.16;5032043;28;19901;-57
2023/09/14 01:35:58;;;;;;;;;;;;;;;12.23;92.69;102204.81;5008963;28;19906;-57
2023/09/14 01:38:25;;;;;;;;;;;;;;;12.20;92.79;102209.91;5034422;28;19908;-58
2023/09/14 01:40:51;;;;;;;;;;;;;;;12.19;92.91;102209.00;5038064;28;20074;-58
2023/09/14 01:43:16;;;;;;;;;;;;;;;12.20;92.89;102210.81;5031413;28;20160;-58
2023/09/14 01:45:42;;;;;;;;;;;;;;;12.21;92.93;102207.38;5028772;28;19905;-57
2023/09/14 01:48:07;;;;;;;;;;;;;;;12.20;92.84;102208.19;5034140;28;19995;-58
2023/09/14 01:50:33;;;;;;;;;;;;;;;12.17;92.77;102213.28;5030446;28;19905;-58
2023/09/14 01:52:58;;;;;;;;;;;;;;;12.11;93.03;102203.50;5033365;28;19992;-57
2023/09/14 01:55:23;;;;;;;;;;;;;;;12.07;92.99;102209.44;5030869;28;19912;-58
2023/09/14 01:57:48;;;;;;;;;;;;;;;12.08;93.14;102215.53;5030988;28;19913;-58
2023/09/14 02:00:15;;;;;;;;;;;;;;;12.06;93.15;102212.84;5033904;28;20089;-58
2023/09/14 02:02:40;;;;;;;;;;;;;;;12.02;92.87;102216.22;5031632;28;19944;-58
2023/09/14 02:05:05;;;;;;;;;;;;;;;11.96;92.96;102210.72;5034538;28;19905;-57
2023/09/14 02:07:30;;;;;;;;;;;;;;;11.93;93.09;102210.56;5027312;28;19906;-57
2023/09/14 02:09:56;;;;;;;;;;;;;;;11.91;93.22;102207.00;5028317;28;20063;-58
2023/09/14 02:12:21;;;;;;;;;;;;;;;11.85;93.07;102202.44;5032711;28;19909;-58
2023/09/14 02:14:46;;;;;;;;;;;;;;;11.82;93.25;102208.41;5036709;28;19912;-58
2023/09/14 02:17:11;;;;;;;;;;;;;;;11.80;93.25;102207.47;5040804;28;20059;-58
2023/09/14 02:19:37;;;;;;;;;;;;;;;11.78;93.19;102203.00;5038462;28;19901;-58
2023/09/14 02:22:02;;;;;;;;;;;;;;;11.78;93.31;102205.63;5032434;28;19909;-57
2023/09/14 02:24:27;;;;;;;;;;;;;;;11.78;93.31;102200.41;5032465;28;20159;-58
2023/09/14 02:26:54;;;;;;;;;;;;;;;11.77;93.19;102199.50;5027205;28;19924;-57
2023/09/14 02:29:19;;;;;;;;;;;;;;;11.78;93.18;102195.19;5024066;28;20204;-58
2023/09/14 02:31:44;;;;;;;;;;;;;;;11.78;93.17;102192.56;5028113;28;19905;-58
2023/09/14 02:34:10;;;;;;;;;;;;;;;11.74;93.22;102199.38;5030474;28;19923;-58
2023/09/14 02:36:35;;;;;;;;;;;;;;;11.70;93.22;102188.75;5033472;28;19909;-57
2023/09/14 02:39:00;;;;;;;;;;;;;;;11.66;93.43;102191.22;5037015;28;19916;-58
2023/09/14 02:41:25;;;;;;;;;;;;;;;11.64;93.19;102192.00;5039285;28;19909;-57
2023/09/14 02:43:50;;;;;;;;;;;;;;;11.60;93.20;102191.00;5027991;28;19906;-57
2023/09/14 02:46:15;;;;;;;;;;;;;;;11.56;93.40;102189.06;5031071;28;20032;-57
2023/09/14 02:48:41;;;;;;;;;;;;;;;11.55;93.49;102186.41;5035982;28;19910;-57
2023/09/14 02:51:06;;;;;;;;;;;;;;;11.54;93.76;102190.72;5034693;28;19909;-57
2023/09/14 02:53:31;;;;;;;;;;;;;;;11.51;93.64;102185.38;5034866;28;20134;-57
2023/09/14 02:55:57;;;;;;;;;;;;;;;11.50;93.57;102186.22;5048806;28;19905;-57
2023/09/14 02:58:22;;;;;;;;;;;;;;;11.47;93.60;102183.47;5040964;28;19905;-57
2023/09/14 03:00:48;;;;;;;;;;;;;;;11.43;93.45;102186.78;5041344;28;19976;-57
2023/09/14 03:03:13;;;;;;;;;;;;;;;11.41;93.67;102188.44;5034744;28;19914;-57
2023/09/14 03:05:38;;;;;;;;;;;;;;;11.37;93.59;102187.44;5042920;28;19906;-58
2023/09/14 03:08:03;;;;;;;;;;;;;;;11.36;93.49;102189.97;5027329;28;19908;-58
2023/09/14 03:10:29;;;;;;;;;;;;;;;11.36;93.69;102184.75;5041038;28;19920;-57
2023/09/14 03:12:54;;;;;;;;;;;;;;;11.33;93.67;102182.03;5031310;28;20051;-57
2023/09/14 03:15:19;;;;;;;;;;;;;;;11.31;93.76;102182.84;5030339;28;20194;-57
2023/09/14 03:17:44;;;;;;;;;;;;;;;11.33;93.84;102182.03;5033372;28;19916;-58
2023/09/14 03:20:10;;;;;;;;;;;;;;;11.29;93.64;102186.19;5036073;28;19909;-57
2023/09/14 03:22:36;;;;;;;;;;;;;;;11.24;93.56;102191.22;5038851;28;19905;-57
2023/09/14 03:25:01;;;;;;;;;;;;;;;11.21;93.83;102192.81;5038206;28;20135;-57
2023/09/14 03:27:26;;;;;;;;;;;;;;;11.19;93.86;102191.84;5041398;28;19905;-56
2023/09/14 03:29:51;;;;;;;;;;;;;;;11.20;94.13;102197.13;5037006;28;20201;-57
2023/09/14 03:32:16;;;;;;;;;;;;;;;11.18;94.05;102204.03;5027009;28;19968;-57
2023/09/14 03:34:42;;;;;;;;;;;;;;;11.18;93.78;102205.72;5029427;28;19906;-57
2023/09/14 03:37:07;;;;;;;;;;;;;;;11.13;93.70;102197.69;5031585;28;19940;-57
2023/09/14 03:39:32;;;;;;;;;;;;;;;11.08;93.86;102199.22;5037745;28;20218;-57
2023/09/14 03:41:57;;;;;;;;;;;;;;;11.05;93.94;102200.00;5041014;28;20094;-57
2023/09/14 03:44:23;;;;;;;;;;;;;;;11.05;94.22;102189.56;5044718;28;19905;-57
2023/09/14 03:46:48;;;;;;;;;;;;;;;11.03;94.01;102193.78;5030435;28;19901;-56
2023/09/14 03:49:13;;;;;;;;;;;;;;;11.00;94.08;102196.28;5036127;28;19909;-58
2023/09/14 03:51:38;;;;;;;;;;;;;;;10.98;94.07;102192.72;5042361;28;19912;-57
2023/09/14 03:54:04;;;;;;;;;;;;;;;10.94;94.00;102185.59;5032875;28;19905;-57
2023/09/14 03:56:29;;;;;;;;;;;;;;;10.93;94.13;102194.22;5033098;28;19976;-57
2023/09/14 03:58:54;;;;;;;;;;;;;;;10.89;94.18;102190.59;5039545;28;19964;-56
2023/09/14 04:01:19;;;;;;;;;;;;;;;10.88;94.35;102191.41;5036807;28;19917;-57
2023/09/14 04:03:45;;;;;;;;;;;;;;;10.88;94.25;102191.41;5038577;28;19905;-57
2023/09/14 04:06:11;;;;;;;;;;;;;;;10.87;94.28;102197.44;5039920;28;19988;-57
2023/09/14 04:08:36;;;;;;;;;;;;;;;10.86;94.31;102192.16;5030714;28;19912;-57
2023/09/14 04:11:01;;;;;;;;;;;;;;;10.85;94.16;102190.38;5030300;28;19902;-58
2023/09/14 04:13:32;;;;;;;;;;;;;;;10.82;94.28;102193.75;5031480;28;19987;-58
2023/09/14 04:15:57;;;;;;;;;;;;;;;10.78;94.43;102195.31;5039464;28;19905;-57
2023/09/14 04:18:23;;;;;;;;;;;;;;;10.80;94.76;102192.78;5036132;28;19932;-58
2023/09/14 04:20:51;;;;;;;;;;;;;;;10.78;94.60;102189.22;5040606;28;19913;-57
2023/09/14 04:23:16;;;;;;;;;;;;;;;10.76;94.77;102183.94;5028385;28;19937;-58
2023/09/14 04:25:44;;;;;;;;;;;;;;;10.76;94.74;102190.88;5032692;28;19929;-57
2023/09/14 04:28:10;;;;;;;;;;;;;;;10.73;94.40;102191.66;5026646;28;20147;-57
2023/09/14 04:30:40;;;;;;;;;;;;;;;10.71;94.79;102188.06;5026912;28;19901;-57
2023/09/14 04:33:05;;;;;;;;;;;;;;;10.70;95.16;102191.50;5026659;28;19901;-57
2023/09/14 04:35:31;;;;;;;;;;;;;;;10.69;95.02;102188.81;5026875;28;19902;-57
2023/09/14 04:37:56;;;;;;;;;;;;;;;10.68;94.98;102192.25;5020705;28;19909;-57
2023/09/14 04:40:23;;;;;;;;;;;;;;;10.63;94.77;102189.44;5026581;28;19968;-57
2023/09/14 04:42:48;;;;;;;;;;;;;;;10.60;94.76;102190.19;5026175;28;19921;-57
2023/09/14 04:45:13;;;;;;;;;;;;;;;10.60;94.77;102190.19;5026544;28;19901;-57
2023/09/14 04:47:38;;;;;;;;;;;;;;;10.60;94.93;102190.19;5026409;28;19956;-57
2023/09/14 04:50:03;;;;;;;;;;;;;;;10.58;95.09;102186.59;5026351;28;19909;-57
2023/09/14 04:52:30;;;;;;;;;;;;;;;10.56;94.88;102185.66;5038487;28;21375;-57
2023/09/14 04:54:56;;;;;;;;;;;;;;;10.54;95.06;102196.84;5025761;28;19909;-57
2023/09/14 04:57:24;;;;;;;;;;;;;;;10.53;94.85;102197.66;5038808;28;19909;-57
2023/09/14 04:59:50;;;;;;;;;;;;;;;10.50;95.16;102201.03;5030182;28;19910;-57
2023/09/14 05:02:15;;;;;;;;;;;;;;;10.49;94.72;102198.34;5039031;28;19951;-57
2023/09/14 05:04:40;;;;;;;;;;;;;;;10.49;94.94;102199.25;5025768;28;19940;-57
2023/09/14 05:07:05;;;;;;;;;;;;;;;10.48;95.01;102193.97;5031202;28;19905;-57
2023/09/14 05:09:30;;;;;;;;;;;;;;;10.46;95.10;102190.38;5026864;28;19905;-57
2023/09/14 05:11:56;;;;;;;;;;;;;;;10.43;95.18;102197.25;5032712;28;20115;-57
2023/09/14 05:14:21;;;;;;;;;;;;;;;10.42;95.30;102194.56;5037137;28;19983;-57
2023/09/14 05:16:46;;;;;;;;;;;;;;;10.40;95.27;102193.63;5038245;28;19912;-57
2023/09/14 05:19:11;;;;;;;;;;;;;;;10.40;95.26;102202.31;5036698;28;19912;-57
2023/09/14 05:21:36;;;;;;;;;;;;;;;10.38;95.48;102200.44;5031673;28;20214;-57
2023/09/14 05:24:01;;;;;;;;;;;;;;;10.37;95.48;102206.47;5024556;28;19902;-57
2023/09/14 05:26:27;;;;;;;;;;;;;;;10.35;95.58;102203.81;5025128;28;20055;-57
2023/09/14 05:28:52;;;;;;;;;;;;;;;10.35;95.82;102208.13;5028102;28;20061;-57
2023/09/14 05:31:17;;;;;;;;;;;;;;;10.33;96.06;102209.75;5039993;28;20254;-57
2023/09/14 05:33:42;;;;;;;;;;;;;;;10.33;95.92;102214.97;5034352;28;20147;-58
2023/09/14 05:36:08;;;;;;;;;;;;;;;10.35;95.92;102228.97;5013357;28;19963;-57
2023/09/14 05:38:33;;;;;;;;;;;;;;;10.34;95.97;102216.75;5030190;28;19964;-57
2023/09/14 05:40:58;;;;;;;;;;;;;;;10.33;95.82;102223.66;5027189;28;19934;-57
2023/09/14 05:43:23;;;;;;;;;;;;;;;10.35;95.91;102224.66;5035458;28;19913;-57
2023/09/14 05:45:50;;;;;;;;;;;;;;;10.35;96.00;102223.75;5032587;28;19906;-57
2023/09/14 05:48:16;;;;;;;;;;;;;;;10.36;95.92;102229.03;5038065;28;19913;-58
2023/09/14 05:50:41;;;;;;;;;;;;;;;10.37;96.08;102223.03;5024393;28;19948;-57
2023/09/14 05:53:06;;;;;;;;;;;;;;;10.38;96.11;102224.78;5035617;28;19945;-57
2023/09/14 05:55:31;;;;;;;;;;;;;;;10.38;96.14;102229.09;5036542;28;19935;-57
2023/09/14 05:57:56;;;;;;;;;;;;;;;10.38;96.09;102227.38;5039506;28;19912;-57
2023/09/14 06:00:22;;;;;;;;;;;;;;;10.39;96.21;102228.31;5027562;28;19912;-57
2023/09/14 06:02:47;;;;;;;;;;;;;;;10.40;96.38;102227.50;5035601;28;19905;-57
2023/09/14 06:05:12;;;;;;;;;;;;;;;10.42;96.46;102237.13;5035935;28;19914;-56
2023/09/14 06:07:37;;;;;;;;;;;;;;;10.43;96.60;102227.63;5042396;28;19905;-56
2023/09/14 06:10:03;;;;;;;;;;;;;;;10.46;96.59;102227.75;5028414;28;19909;-57
2023/09/14 06:12:29;;;;;;;;;;;;;;;10.47;96.49;102229.56;5031277;28;19906;-57
2023/09/14 06:14:54;;;;;;;;;;;;;;;10.48;96.73;102226.09;5018650;28;19908;-57
2023/09/14 06:17:20;;;;;;;;;;;;;;;10.50;96.91;102224.47;5033348;28;19906;-56
2023/09/14 06:19:45;;;;;;;;;;;;;;;10.53;96.94;102224.63;5022544;28;19914;-57
2023/09/14 06:22:10;;;;;;;;;;;;;;;10.57;96.94;102230.84;5029967;28;19909;-56
2023/09/14 06:24:36;;;;;;;;;;;;;;;10.60;96.96;102237.13;5034632;28;19972;-57
2023/09/14 06:27:01;;;;;;;;;;;;;;;10.61;97.05;102232.78;5024865;28;19985;-57
2023/09/14 06:29:26;;;;;;;;;;;;;;;10.65;97.08;102239.03;5037251;28;19913;-57
2023/09/14 06:31:51;;;;;;;;;;;;;;;10.68;97.14;102236.56;5026876;28;19901;-57
2023/09/14 06:34:17;;;;;;;;;;;;;;;10.71;97.15;102234.09;5024555;28;20191;-55
2023/09/14 06:36:42;;;;;;;;;;;;;;;10.73;97.54;102232.44;5023065;28;19906;-56
2023/09/14 06:39:07;;;;;;;;;;;;;;;10.75;97.78;102234.31;5017977;28;19925;-58
2023/09/14 06:41:32;;;;;;;;;;;;;;;10.80;97.88;102234.50;5035532;28;20083;-57
2023/09/14 06:43:57;;;;;;;;;;;;;;;10.84;98.13;102231.22;5024420;28;19963;-56
2023/09/14 06:46:23;;;;;;;;;;;;;;;10.89;98.30;102242.75;5027046;28;19940;-57
2023/09/14 06:48:48;;;;;;;;;;;;;;;10.93;98.81;102236.88;5026321;28;19909;-57
2023/09/14 06:51:13;;;;;;;;;;;;;;;10.99;98.65;102235.34;5024372;28;19909;-57
2023/09/14 06:53:38;;;;;;;;;;;;;;;11.03;99.22;102230.31;5029365;28;19912;-57
2023/09/14 06:56:04;;;;;;;;;;;;;;;11.07;98.33;102234.84;5031452;28;19906;-57
2023/09/14 06:58:29;;;;;;;;;;;;;;;11.11;99.49;102234.16;5025377;28;20052;-57
2023/09/14 07:00:56;;;;;;;;;;;;;;;11.15;99.79;102232.56;5022950;28;19945;-57
2023/09/14 07:03:22;;;;;;;;;;;;;;;11.22;99.00;102239.81;5023345;28;19908;-57
2023/09/14 07:05:47;;;;;;;;;;;;;;;11.29;100.00;102241.88;5018296;28;19949;-57
2023/09/14 07:08:12;;;;;;;;;;;;;;;11.36;100.00;102247.38;5026116;28;19905;-58
2023/09/14 07:10:38;;;;;;;;;;;;;;;11.43;100.00;102244.22;5031962;28;19940;-57
2023/09/14 07:13:03;;;;;;;;;;;;;;;11.51;100.00;102242.78;5018467;28;19909;-57
2023/09/14 07:15:28;;;;;;;;;;;;;;;11.58;100.00;102239.63;5033748;28;19910;-56
2023/09/14 07:17:54;;;;;;;;;;;;;;;11.67;100.00;102231.28;5030065;28;19941;-57
2023/09/14 07:20:19;;;;;;;;;;;;;;;11.73;100.00;102234.16;5024027;28;19918;-58
2023/09/14 07:22:44;;;;;;;;;;;;;;;11.81;100.00;102226.63;5025939;28;19944;-57
2023/09/14 07:25:09;;;;;;;;;;;;;;;11.90;100.00;102240.06;5023012;28;20163;-57
2023/09/14 07:27:35;;;;;;;;;;;;;;;11.98;100.00;102243.03;5032717;28;19946;-57
2023/09/14 07:30:00;;;;;;;;;;;;;;;12.08;100.00;102241.66;5022119;28;20158;-57
2023/09/14 07:32:25;;;;;;;;;;;;;;;12.29;100.00;102234.66;5016744;28;20255;-57
2023/09/14 07:34:50;;;;;;;;;;;;;;;12.43;100.00;102237.81;5022316;28;20028;-58
2023/09/14 07:37:15;;;;;;;;;;;;;;;12.59;100.00;102241.91;5022330;28;19901;-58
2023/09/14 07:39:41;;;;;;;;;;;;;;;12.70;100.00;102245.81;5019984;28;19909;-57
2023/09/14 07:42:06;;;;;;;;;;;;;;;12.78;100.00;102242.63;5025403;28;20025;-57
2023/09/14 07:44:31;;;;;;;;;;;;;;;12.89;100.00;102246.53;5027344;28;20151;-57
2023/09/14 07:46:56;;;;;;;;;;;;;;;12.96;100.00;102253.75;5027770;28;19902;-57
2023/09/14 07:49:21;;;;;;;;;;;;;;;13.08;100.00;102252.38;5027335;28;19910;-58
2023/09/14 07:51:47;;;;;;;;;;;;;;;13.23;100.00;102247.72;5027602;28;20139;-57
2023/09/14 07:54:13;;;;;;;;;;;;;;;13.38;100.00;102257.84;5027442;28;19919;-58
2023/09/14 07:56:38;;;;;;;;;;;;;;;13.47;100.00;102258.19;5036540;28;19905;-58
2023/09/14 07:59:03;;;;;;;;;;;;;;;13.58;100.00;102255.94;5027419;28;19909;-58
2023/09/14 08:01:28;;;;;;;;;;;;;;;13.69;100.00;102254.56;5026364;28;19925;-57
2023/09/14 08:03:53;;;;;;;;;;;;;;;13.82;100.00;102265.47;5026139;28;19906;-58
2023/09/14 08:06:20;;;;;;;;;;;;;;;13.96;100.00;102264.19;5026899;28;19901;-58
2023/09/14 08:08:45;;;;;;;;;;;;;;;14.06;100.00;102261.03;5026950;28;20019;-58
2023/09/14 08:11:11;;;;;;;;;;;;;;;14.19;100.00;102259.69;5027991;28;20159;-58
2023/09/14 08:13:36;;;;;;;;;;;;;;;14.32;100.00;102255.69;5009249;28;19905;-58
2023/09/14 08:16:04;;;;;;;;;;;;;;;14.44;100.00;102253.44;5035487;28;19912;-58
2023/09/14 08:18:30;;;;;;;;;;;;;;;14.56;100.00;102249.44;5029148;28;19913;-58
2023/09/14 08:20:56;;;;;;;;;;;;;;;14.69;100.00;102243.72;5029794;28;19916;-58
2023/09/14 08:23:21;;;;;;;;;;;;;;;14.83;100.00;102246.75;5025451;28;19912;-58
2023/09/14 08:25:47;;;;;;;;;;;;;;;14.98;100.00;102246.28;5026145;28;19926;-58
2023/09/14 08:28:18;;;;;;;;;;;;;;;15.16;100.00;102250.25;5026955;28;20028;-58
2023/09/14 08:30:43;;;;;;;;;;;;;;;15.31;100.00;102255.94;5022237;28;19939;-58
2023/09/14 08:33:08;;;;;;;;;;;;;;;15.46;100.00;102245.81;5033023;28;19905;-58
2023/09/14 08:35:35;;;;;;;;;;;;;;;15.58;100.00;102255.78;5030198;28;19931;-58
2023/09/14 08:38:03;;;;;;;;;;;;;;;15.67;100.00;102257.75;5026690;28;19909;-59
2023/09/14 08:40:29;;;;;;;;;;;;;;;15.75;100.00;102256.19;5039856;28;19913;-59
2023/09/14 08:42:55;;;;;;;;;;;;;;;15.85;100.00;102264.34;5034069;28;19913;-58
2023/09/14 08:45:23;;;;;;;;;;;;;;;15.95;100.00;102263.72;5028940;28;19948;-58
2023/09/14 08:47:49;;;;;;;;;;;;;;;16.05;100.00;102268.34;5008727;28;20036;-58
2023/09/14 08:50:15;;;;;;;;;;;;;;;16.19;100.00;102262.50;5024872;28;19916;-58
2023/09/14 08:52:42;;;;;;;;;;;;;;;16.32;100.00;102261.94;5029816;28;19912;-58
2023/09/14 08:55:08;;;;;;;;;;;;;;;16.40;100.00;102262.13;5015574;28;19906;-59
2023/09/14 08:57:34;;;;;;;;;;;;;;;16.49;100.00;102262.31;5025259;28;20099;-59
2023/09/14 09:00:00;;;;;;;;;;;;;;;16.51;100.00;102255.31;5026427;28;19901;-59
2023/09/14 09:02:27;;;;;;;;;;;;;;;16.60;100.00;102255.53;5034053;28;19909;-59
2023/09/14 09:04:52;;;;;;;;;;;;;;;16.71;100.00;102250.50;5034210;28;19909;-58
2023/09/14 09:07:17;;;;;;;;;;;;;;;16.81;100.00;102243.69;5029490;28;20153;-58
2023/09/14 09:09:43;;;;;;;;;;;;;;;16.91;100.00;102245.66;5037063;28;20041;-59
2023/09/14 09:12:08;;;;;;;;;;;;;;;17.00;99.99;102250.22;5030549;28;19912;-59
2023/09/14 09:14:37;;;;;;;;;;;;;;;17.03;99.46;102252.91;5026028;28;20115;-59
2023/09/14 09:17:02;;;;;;;;;;;;;;;17.06;98.99;102253.00;5023032;28;19913;-59
2023/09/14 09:19:28;;;;;;;;;;;;;;;17.17;99.59;102240.91;5030144;28;19905;-58
2023/09/14 09:21:53;;;;;;;;;;;;;;;17.32;98.49;102248.22;5022608;28;19932;-59
2023/09/14 09:24:27;;;;;;;;;;;;;;;17.50;98.29;102246.78;5037381;28;19918;-59
2023/09/14 09:26:54;;;;;;;;;;;;;;;17.65;97.31;102246.13;5013631;28;19901;-59
2023/09/14 09:29:19;;;;;;;;;;;;;;;17.81;96.86;102242.88;5022846;28;19967;-59
2023/09/14 09:31:46;;;;;;;;;;;;;;;17.96;96.13;102244.94;5024884;28;19906;-61
2023/09/14 09:34:12;;;;;;;;;;;;;;;18.04;95.69;102247.66;5025233;28;19913;-60
2023/09/14 09:36:38;;;;;;;;;;;;;;;17.99;95.02;102244.97;5025125;28;19901;-59
2023/09/14 09:39:06;;;;;;;;;;;;;;;18.11;95.56;102238.13;5025000;28;19968;-59
2023/09/14 09:41:34;;;;;;;;;;;;;;;18.23;94.40;102240.91;5022702;28;19905;-60
2023/09/14 09:44:05;;;;;;;;;;;;;;;18.41;93.56;102240.28;5008320;28;20090;-60
2023/09/14 09:46:32;;;;;;;;;;;;;;;18.58;93.72;102235.22;5023375;28;20101;-60
2023/09/14 09:48:57;;;;;;;;;;;;;;;18.69;91.49;102233.59;5021806;28;19945;-60
2023/09/14 09:51:24;;;;;;;;;;;;;;;18.56;88.91;102223.75;5025162;28;19964;-60
2023/09/14 09:54:05;;;;;;;;;;;;;;;18.49;90.97;102235.09;5025280;28;19944;-60
2023/09/14 09:56:32;;;;;;;;;;;;;;;18.50;87.03;102231.63;5023384;28;20131;-60
2023/09/14 09:59:00;;;;;;;;;;;;;;;18.60;85.15;102229.09;5024275;28;19905;-60
2023/09/14 10:01:26;;;;;;;;;;;;;;;18.53;86.88;102239.56;5025421;28;19984;-60
2023/09/14 10:03:54;;;;;;;;;;;;;;;18.62;87.17;102234.38;5025477;28;19902;-60
2023/09/14 10:06:19;;;;;;;;;;;;;;;18.69;87.83;102232.72;5005563;28;19968;-61
2023/09/14 10:08:51;;;;;;;;;;;;;;;18.64;86.00;102230.03;5025086;28;19902;-60
2023/09/14 10:11:19;;;;;;;;;;;;;;;18.68;86.66;102225.66;5007621;28;20086;-60
2023/09/14 10:13:45;;;;;;;;;;;;;;;18.81;85.60;102224.06;5024776;28;20004;-60
2023/09/14 10:16:11;;;;;;;;;;;;;;;18.94;84.04;102220.72;5024330;28;19922;-60
2023/09/14 10:18:36;;;;;;;;;;;;;;;19.11;85.66;102220.91;5018614;28;19909;-61
2023/09/14 10:21:05;;;;;;;;;;;;;;;19.33;79.92;102224.63;5025145;28;20141;-60
2023/09/14 10:23:32;;;;;;;;;;;;;;;19.46;82.31;102218.59;5023477;28;19914;-61
2023/09/14 10:25:57;;;;;;;;;;;;;;;19.43;81.77;102228.25;5015888;28;19902;-61
2023/09/14 10:28:23;;;;;;;;;;;;;;;19.28;82.61;102221.94;5023625;28;20178;-61
2023/09/14 10:30:50;;;;;;;;;;;;;;;19.14;83.46;102225.34;5029563;28;20028;-61
2023/09/14 10:33:17;;;;;;;;;;;;;;;19.03;83.55;102227.84;5023480;28;19902;-61
2023/09/14 10:35:42;;;;;;;;;;;;;;;18.86;84.01;102220.63;5019295;28;19948;-61
2023/09/14 10:38:08;;;;;;;;;;;;;;;18.80;84.53;102214.34;5022736;28;19906;-61
2023/09/14 10:40:36;;;;;;;;;;;;;;;18.75;80.07;102209.91;5026192;28;19941;-61
2023/09/14 10:43:02;;;;;;;;;;;;;;;18.66;79.76;102209.81;5020333;28;20194;-60
2023/09/14 10:45:30;;;;;;;;;;;;;;;18.61;83.13;102208.88;5006822;28;19905;-60
2023/09/14 10:47:56;;;;;;;;;;;;;;;18.55;83.03;102208.78;5023688;28;20087;-61
2023/09/14 10:50:22;;;;;;;;;;;;;;;18.49;82.89;102203.44;5024016;28;19928;-61
2023/09/14 10:52:47;;;;;;;;;;;;;;;18.51;83.29;102194.69;5030446;28;19908;-61
2023/09/14 10:55:12;;;;;;;;;;;;;;;18.64;79.55;102206.28;5023451;28;20114;-61
2023/09/14 10:57:40;;;;;;;;;;;;;;;18.87;79.86;102200.38;5025420;28;19905;-61
2023/09/14 11:00:06;;;;;;;;;;;;;;;19.03;73.81;102191.78;5041138;28;19905;-61
2023/09/14 11:02:39;;;;;;;;;;;;;;;19.09;74.54;102193.59;5035041;28;20218;-61
2023/09/14 11:05:11;;;;;;;;;;;;;;;19.13;80.01;102195.38;5038516;28;19980;-61
2023/09/14 11:08:11;;;;;;;;;;;;;;;19.15;80.13;102191.00;5044478;28;20047;-61
2023/09/14 11:10:59;;;;;;;;;;;;;;;18.98;79.03;102188.19;4999959;28;19906;-61
2023/09/14 11:13:26;;;;;;;;;;;;;;;19.00;81.34;102185.56;4989264;28;20473;-61
2023/09/14 11:16:09;;;;;;;;;;;;;;;19.08;81.98;102189.16;4994585;28;19906;-61
2023/09/14 11:18:36;;;;;;;;;;;;;;;19.12;82.25;102183.06;4998321;28;19953;-61
2023/09/14 11:21:03;;;;;;;;;;;;;;;19.17;82.43;102183.97;4976210;28;19919;-61
2023/09/14 11:32:50;;;;;;;;;;;;;;;19.09;80.51;102190.94;5024320;28;20098;-61
2023/09/14 11:35:17;;;;;;;;;;;;;;;19.11;81.53;102189.19;5030875;28;19964;-61
2023/09/14 11:37:42;;;;;;;;;;;;;;;19.13;81.45;102187.44;5025640;28;19917;-61
2023/09/14 11:40:16;;;;;;;;;;;;;;;19.17;81.94;102191.88;5026619;28;20013;-61
2023/09/14 11:43:21;;;;;;;;;;;;;;;19.10;82.38;102192.69;5025413;28;19964;-61
2023/09/14 11:45:51;;;;;;;;;;;;;;;18.98;82.43;102193.47;5027584;28;19937;-61
2023/09/14 11:48:18;;;;;;;;;;;;;;;18.93;81.89;102185.50;5025981;28;19973;-62
2023/09/14 11:50:47;;;;;;;;;;;;;;;18.94;83.09;102182.00;5026850;28;19913;-61
2023/09/14 11:53:16;;;;;;;;;;;;;;;18.98;82.84;102188.19;5041794;28;19910;-61
2023/09/14 11:55:41;;;;;;;;;;;;;;;18.98;83.36;102187.31;5005847;28;19909;-62
2023/09/14 11:58:06;;;;;;;;;;;;;;;18.98;83.45;102184.66;5022466;28;19920;-62
2023/09/14 12:03:07;;;;;;;;;;;;;;;18.92;84.03;102188.13;5737699;23;20225;-61
2023/09/14 12:05:33;;;;;;;;;;;;;;;18.88;83.93;102181.03;5007938;28;19929;-61
2023/09/14 12:07:58;;;;;;;;;;;;;;;18.82;84.07;102179.19;5018822;28;19917;-62
2023/09/14 12:10:23;;;;;;;;;;;;;;;18.73;84.71;102176.44;5026016;28;20063;-62
2023/09/14 12:12:49;;;;;;;;;;;;;;;18.72;85.06;102167.63;5025034;28;19914;-62
2023/09/14 12:15:21;;;;;;;;;;;;;;;18.84;85.50;102179.19;5024184;28;19956;-61
2023/09/14 12:17:50;;;;;;;;;;;;;;;19.21;85.41;102172.56;5023184;28;19913;-61
2023/09/14 12:20:16;;;;;;;;;;;;;;;19.46;81.82;102172.75;5021049;28;19969;-62
2023/09/14 12:22:41;;;;;;;;;;;;;;;19.58;82.47;102171.97;5024920;28;19960;-61
2023/09/14 12:25:17;;;;;;;;;;;;;;;19.60;80.19;102168.47;5023195;28;19952;-65
2023/09/14 12:27:42;;;;;;;;;;;;;;;19.58;78.59;102169.31;5022263;28;19914;-63
2023/09/14 12:30:08;;;;;;;;;;;;;;;19.55;78.75;102167.56;5023304;28;19921;-62
2023/09/14 12:32:35;;;;;;;;;;;;;;;19.53;79.44;102174.59;5022503;28;20276;-62
2023/09/14 12:35:00;;;;;;;;;;;;;;;19.48;79.83;102168.38;5025593;28;19972;-61
2023/09/14 12:37:26;;;;;;;;;;;;;;;19.48;80.31;102168.38;5022006;28;19936;-62
2023/09/14 12:39:52;;;;;;;;;;;;;;;19.46;80.39;102156.91;5025607;28;19909;-63
2023/09/14 12:42:18;;;;;;;;;;;;;;;19.46;80.64;102159.53;5024553;28;19967;-62